createdAt,value
2016-10-29T00:01:06.252Z,99.99
2016-10-29T00:02:05.840Z,99.99
2016-10-29T00:03:05.727Z,99.99
2016-10-29T00:04:05.719Z,99.99
2016-10-29T00:05:05.710Z,99.99
2016-10-29T00:06:05.698Z,99.99
2016-10-29T00:07:05.694Z,99.99
2016-10-29T00:08:05.681Z,99.99
2016-10-29T00:09:05.672Z,99.99
2016-10-29T00:10:05.663Z,99.99
2016-10-29T00:11:06.699Z,99.99
2016-10-29T00:12:05.643Z,99.99
2016-10-29T00:13:05.632Z,99.99
2016-10-29T00:14:05.623Z,99.99
2016-10-29T00:15:06.600Z,99.99
2016-10-29T00:16:05.598Z,99.99
2016-10-29T00:17:05.596Z,99.99
2016-10-29T00:18:05.585Z,99.99
2016-10-29T00:19:05.576Z,99.99
2016-10-29T00:20:05.564Z,99.99
2016-10-29T00:21:07.066Z,99.99
2016-10-29T00:22:05.626Z,99.99
2016-10-29T00:23:05.999Z,99.99
2016-10-29T00:24:06.018Z,99.99
2016-10-29T00:25:05.515Z,99.99
2016-10-29T00:26:05.511Z,99.99
2016-10-29T00:27:05.540Z,99.99
2016-10-29T00:28:05.483Z,99.99
2016-10-29T00:29:05.468Z,99.99
2016-10-29T00:30:05.463Z,99.99
2016-10-29T00:31:05.454Z,99.99
2016-10-29T00:32:05.450Z,99.99
2016-10-29T00:33:05.431Z,99.99
2016-10-29T00:34:05.422Z,99.99
2016-10-29T00:35:05.415Z,99.99
2016-10-29T00:36:05.400Z,99.99
2016-10-29T00:37:05.385Z,99.99
2016-10-29T00:38:05.380Z,99.99
2016-10-29T00:39:05.374Z,99.99
2016-10-29T00:40:05.358Z,99.99
2016-10-29T00:41:05.377Z,99.99
2016-10-29T00:42:05.342Z,99.99
2016-10-29T00:43:05.333Z,99.99
2016-10-29T00:44:05.318Z,99.99
2016-10-29T00:45:05.313Z,99.99
2016-10-29T00:46:05.298Z,99.99
2016-10-29T00:47:05.289Z,99.99
2016-10-29T00:48:05.274Z,99.99
2016-10-29T00:49:05.266Z,99.99
2016-10-29T00:50:05.259Z,99.99
2016-10-29T00:51:05.251Z,99.99
2016-10-29T00:52:05.236Z,99.99
2016-10-29T00:53:05.224Z,99.99
2016-10-29T00:54:05.214Z,99.99
2016-10-29T00:55:05.206Z,99.99
2016-10-29T00:56:05.192Z,99.99
2016-10-29T00:57:05.185Z,99.99
2016-10-29T00:58:05.175Z,99.99
2016-10-29T00:59:05.161Z,99.99
2016-10-29T01:00:05.152Z,99.99
2016-10-29T01:01:05.142Z,99.99
2016-10-29T01:02:05.136Z,99.99
2016-10-29T01:03:05.123Z,99.99
2016-10-29T01:04:05.116Z,99.99
2016-10-29T01:06:05.092Z,99.99
2016-10-29T01:07:05.081Z,99.99
2016-10-29T01:08:05.075Z,99.99
2016-10-29T01:09:05.516Z,99.99
2016-10-29T01:10:05.703Z,99.99
2016-10-29T01:11:05.039Z,99.99
2016-10-29T01:12:05.035Z,99.99
2016-10-29T01:13:05.019Z,99.99
2016-10-29T01:14:05.511Z,99.99
2016-10-29T01:15:04.998Z,99.99
2016-10-29T01:16:05.193Z,99.99
2016-10-29T01:18:04.973Z,99.99
2016-10-29T01:19:04.955Z,99.99
2016-10-29T01:20:04.951Z,99.99
2016-10-29T01:21:04.939Z,99.99
2016-10-29T01:22:04.930Z,99.99
2016-10-29T01:23:04.918Z,99.99
2016-10-29T01:24:04.907Z,99.99
2016-10-29T01:25:04.893Z,99.99
2016-10-29T01:26:04.887Z,99.99
2016-10-29T01:27:04.879Z,99.99
2016-10-29T01:28:04.866Z,99.99
2016-10-29T01:29:04.856Z,99.99
2016-10-29T01:30:05.438Z,99.99
2016-10-29T01:31:06.125Z,99.99
2016-10-29T01:32:04.828Z,99.99
2016-10-29T01:33:04.819Z,99.99
2016-10-29T01:34:04.805Z,99.99
2016-10-29T01:35:04.787Z,99.99
2016-10-29T01:36:05.133Z,99.99
2016-10-29T01:37:04.770Z,99.99
2016-10-29T01:38:05.057Z,99.99
2016-10-29T01:39:04.751Z,99.99
2016-10-29T01:40:04.741Z,99.99
2016-10-29T01:41:05.057Z,99.99
2016-10-29T01:42:04.718Z,99.99
2016-10-29T01:43:04.704Z,99.99
2016-10-29T01:44:04.706Z,99.99
2016-10-29T01:45:04.691Z,99.99
2016-10-29T01:46:04.675Z,99.99
2016-10-29T01:47:04.665Z,99.99
2016-10-29T01:48:04.657Z,99.99
2016-10-29T01:49:04.644Z,99.99
2016-10-29T01:50:04.630Z,99.99
2016-10-29T01:51:04.621Z,99.99
2016-10-29T01:52:04.609Z,99.99
2016-10-29T01:53:04.601Z,99.99
2016-10-29T01:54:04.594Z,99.99
2016-10-29T01:55:04.580Z,99.99
2016-10-29T01:56:04.572Z,99.99
2016-10-29T01:57:04.561Z,99.99
2016-10-29T01:58:04.550Z,99.99
2016-10-29T01:59:04.538Z,99.99
2016-10-29T02:00:04.525Z,99.99
2016-10-29T02:01:04.513Z,99.99
2016-10-29T02:02:04.502Z,99.99
2016-10-29T02:03:04.498Z,99.99
2016-10-29T02:04:04.479Z,99.99
2016-10-29T02:05:04.468Z,99.99
2016-10-29T02:06:04.458Z,99.99
2016-10-29T02:07:04.451Z,99.99
2016-10-29T02:08:04.446Z,99.99
2016-10-29T02:09:04.432Z,99.99
2016-10-29T02:10:04.421Z,99.99
2016-10-29T02:11:04.415Z,99.99
2016-10-29T02:12:04.400Z,99.99
2016-10-29T02:13:04.387Z,99.99
2016-10-29T02:14:04.373Z,99.99
2016-10-29T02:15:04.368Z,99.99
2016-10-29T02:16:04.353Z,99.99
2016-10-29T02:17:04.348Z,99.99
2016-10-29T02:18:04.334Z,99.99
2016-10-29T02:19:04.320Z,99.99
2016-10-29T02:20:04.311Z,99.99
2016-10-29T02:21:04.330Z,99.99
2016-10-29T02:22:04.291Z,99.99
2016-10-29T02:23:05.484Z,99.99
2016-10-29T02:24:04.821Z,99.99
2016-10-29T02:25:04.255Z,99.99
2016-10-29T02:26:04.555Z,99.99
2016-10-29T02:27:04.272Z,99.99
2016-10-29T02:28:04.227Z,99.99
2016-10-29T02:29:04.211Z,99.99
2016-10-29T02:30:04.208Z,99.99
2016-10-29T02:31:04.192Z,99.99
2016-10-29T02:32:04.182Z,99.99
2016-10-29T02:33:04.454Z,99.99
2016-10-29T02:34:04.561Z,99.99
2016-10-29T02:36:04.838Z,99.99
2016-10-29T02:37:04.427Z,99.99
2016-10-29T02:38:04.121Z,99.99
2016-10-29T02:39:04.106Z,99.99
2016-10-29T02:40:04.095Z,99.99
2016-10-29T02:41:04.088Z,99.99
2016-10-29T02:42:04.072Z,99.99
2016-10-29T02:43:04.065Z,99.99
2016-10-29T02:44:04.055Z,99.99
2016-10-29T02:45:04.044Z,99.99
2016-10-29T02:46:04.038Z,99.99
2016-10-29T02:47:04.021Z,99.99
2016-10-29T02:48:04.792Z,99.99
2016-10-29T02:49:04.356Z,99.99
2016-10-29T02:50:03.987Z,99.99
2016-10-29T02:51:04.120Z,99.99
2016-10-29T02:52:04.340Z,99.99
2016-10-29T02:53:04.029Z,99.99
2016-10-29T02:54:03.945Z,99.99
2016-10-29T02:55:03.938Z,99.99
2016-10-29T02:56:03.925Z,99.99
2016-10-29T02:57:05.377Z,99.99
2016-10-29T02:58:05.415Z,99.99
2016-10-29T02:59:04.069Z,99.99
2016-10-29T03:00:03.879Z,99.99
2016-10-29T03:01:03.869Z,99.99
2016-10-29T03:02:03.855Z,99.99
2016-10-29T03:03:03.849Z,99.99
2016-10-29T03:04:04.126Z,99.99
2016-10-29T03:05:03.829Z,99.99
2016-10-29T03:06:03.816Z,99.99
2016-10-29T03:07:03.802Z,99.99
2016-10-29T03:08:04.092Z,99.99
2016-10-29T03:09:03.785Z,99.99
2016-10-29T03:10:03.768Z,99.99
2016-10-29T03:11:03.768Z,99.99
2016-10-29T03:12:03.752Z,99.99
2016-10-29T03:13:03.737Z,99.99
2016-10-29T03:14:04.038Z,99.99
2016-10-29T03:15:03.717Z,99.99
2016-10-29T03:16:03.706Z,99.99
2016-10-29T03:17:03.696Z,99.99
2016-10-29T03:18:03.685Z,99.99
2016-10-29T03:19:03.679Z,99.99
2016-10-29T03:20:03.972Z,99.99
2016-10-29T03:21:03.655Z,99.99
2016-10-29T03:22:03.947Z,99.99
2016-10-29T03:23:03.632Z,99.99
2016-10-29T03:24:03.621Z,99.99
2016-10-29T03:25:03.610Z,99.99
2016-10-29T03:26:03.602Z,99.99
2016-10-29T03:27:03.589Z,99.99
2016-10-29T03:28:03.578Z,99.99
2016-10-29T03:29:03.566Z,99.99
2016-10-29T03:30:03.559Z,99.99
2016-10-29T03:31:03.544Z,99.99
2016-10-29T03:32:03.538Z,99.99
2016-10-29T03:33:03.530Z,99.99
2016-10-29T03:34:03.516Z,99.99
2016-10-29T03:35:03.504Z,99.99
2016-10-29T03:36:03.495Z,99.99
2016-10-29T03:37:03.486Z,99.99
2016-10-29T03:38:03.469Z,99.99
2016-10-29T03:39:03.500Z,99.99
2016-10-29T03:40:03.453Z,99.99
2016-10-29T03:41:03.443Z,99.99
2016-10-29T03:42:03.482Z,99.99
2016-10-29T03:43:04.725Z,99.99
2016-10-29T03:44:03.965Z,99.99
2016-10-29T03:45:03.850Z,99.99
2016-10-29T03:46:03.793Z,99.99
2016-10-29T03:47:03.382Z,99.99
2016-10-29T03:48:03.372Z,99.99
2016-10-29T03:49:03.356Z,99.99
2016-10-29T03:50:03.353Z,99.99
2016-10-29T03:51:04.293Z,99.99
2016-10-29T03:52:03.332Z,99.99
2016-10-29T03:53:04.925Z,99.99
2016-10-29T03:54:03.303Z,99.99
2016-10-29T03:55:03.445Z,99.99
2016-10-29T03:56:03.290Z,99.99
2016-10-29T03:57:03.281Z,99.99
2016-10-29T03:58:03.266Z,99.99
2016-10-29T03:59:03.253Z,99.99
2016-10-29T04:00:03.249Z,99.99
2016-10-29T04:01:03.535Z,99.99
2016-10-29T04:02:03.224Z,99.99
2016-10-29T04:03:03.219Z,99.99
2016-10-29T04:04:03.205Z,99.99
2016-10-29T04:05:03.193Z,99.99
2016-10-29T04:07:03.169Z,99.99
2016-10-29T04:08:04.667Z,99.99
2016-10-29T04:09:03.623Z,99.99
2016-10-29T04:10:03.143Z,99.99
2016-10-29T04:11:03.136Z,99.99
2016-10-29T04:12:03.118Z,99.99
2016-10-29T04:13:03.110Z,99.99
2016-10-29T04:14:03.103Z,99.99
2016-10-29T04:15:03.806Z,99.99
2016-10-29T04:16:04.591Z,99.99
2016-10-29T04:17:03.062Z,99.99
2016-10-29T04:18:03.056Z,99.99
2016-10-29T04:19:03.758Z,99.99
2016-10-29T04:20:03.030Z,99.99
2016-10-29T04:21:03.024Z,99.99
2016-10-29T04:22:03.015Z,99.99
2016-10-29T04:23:03.003Z,99.99
2016-10-29T04:24:02.990Z,99.99
2016-10-29T04:25:02.983Z,99.99
2016-10-29T04:26:02.967Z,99.99
2016-10-29T04:27:02.958Z,99.99
2016-10-29T04:28:02.949Z,99.99
2016-10-29T04:29:02.934Z,99.99
2016-10-29T04:30:02.928Z,99.99
2016-10-29T04:31:02.916Z,99.99
2016-10-29T04:32:02.903Z,99.99
2016-10-29T04:33:02.904Z,99.99
2016-10-29T04:34:02.886Z,99.99
2016-10-29T04:35:02.869Z,99.99
2016-10-29T04:36:02.863Z,99.99
2016-10-29T04:37:02.849Z,99.99
2016-10-29T04:38:02.840Z,99.99
2016-10-29T04:39:02.823Z,99.99
2016-10-29T04:40:02.815Z,99.99
2016-10-29T04:41:02.803Z,99.99
2016-10-29T04:42:02.793Z,99.99
2016-10-29T04:43:02.779Z,99.99
2016-10-29T04:44:02.772Z,99.99
2016-10-29T04:45:02.757Z,99.99
2016-10-29T04:46:02.754Z,99.99
2016-10-29T04:47:02.741Z,99.99
2016-10-29T04:48:03.028Z,99.99
2016-10-29T04:49:02.719Z,99.99
2016-10-29T04:50:02.742Z,99.99
2016-10-29T04:51:02.697Z,99.99
2016-10-29T04:52:02.982Z,99.99
2016-10-29T04:53:02.677Z,99.99
2016-10-29T04:54:02.669Z,99.99
2016-10-29T04:55:02.651Z,99.99
2016-10-29T04:56:02.642Z,99.99
2016-10-29T04:57:02.628Z,99.99
2016-10-29T04:58:02.628Z,99.99
2016-10-29T04:59:02.609Z,99.99
2016-10-29T05:00:02.596Z,99.99
2016-10-29T05:01:02.686Z,99.99
2016-10-29T05:02:02.976Z,99.99
2016-10-29T05:03:02.562Z,99.99
2016-10-29T05:04:02.600Z,99.99
2016-10-29T05:05:02.542Z,99.99
2016-10-29T05:06:02.527Z,99.99
2016-10-29T05:07:02.766Z,99.99
2016-10-29T05:08:02.510Z,99.99
2016-10-29T05:09:02.498Z,99.99
2016-10-29T05:10:03.089Z,99.99
2016-10-29T05:12:02.766Z,99.99
2016-10-29T05:13:02.455Z,99.99
2016-10-29T05:14:02.456Z,99.99
2016-10-29T05:15:02.434Z,99.99
2016-10-29T05:16:02.420Z,99.99
2016-10-29T05:17:02.405Z,99.99
2016-10-29T05:18:02.398Z,99.99
2016-10-29T05:19:02.386Z,99.99
2016-10-29T05:20:02.376Z,99.99
2016-10-29T05:21:02.367Z,99.99
2016-10-29T05:22:02.350Z,99.99
2016-10-29T05:23:02.343Z,99.99
2016-10-29T05:24:03.860Z,99.99
2016-10-29T05:25:03.348Z,99.99
2016-10-29T05:26:03.166Z,99.99
2016-10-29T05:27:03.135Z,99.99
2016-10-29T05:28:02.823Z,99.99
2016-10-29T05:29:02.281Z,99.99
2016-10-29T05:30:02.267Z,99.99
2016-10-29T05:31:02.563Z,99.99
2016-10-29T05:32:02.246Z,99.99
2016-10-29T05:33:02.245Z,99.99
2016-10-29T05:34:02.583Z,99.99
2016-10-29T05:35:02.219Z,99.99
2016-10-29T05:36:02.202Z,99.99
2016-10-29T05:37:02.188Z,99.99
2016-10-29T05:38:02.178Z,99.99
2016-10-29T05:39:02.171Z,99.99
2016-10-29T05:40:02.399Z,99.99
2016-10-29T05:41:02.263Z,99.99
2016-10-29T05:42:02.138Z,99.99
2016-10-29T05:43:02.129Z,99.99
2016-10-29T05:44:02.121Z,99.99
2016-10-29T05:45:02.106Z,99.99
2016-10-29T05:46:02.103Z,99.99
2016-10-29T05:47:02.078Z,99.99
2016-10-29T05:48:02.072Z,99.99
2016-10-29T05:49:02.063Z,99.99
2016-10-29T05:50:02.051Z,99.99
2016-10-29T05:51:02.042Z,99.99
2016-10-29T05:52:02.028Z,99.99
2016-10-29T05:53:02.023Z,99.99
2016-10-29T05:54:02.006Z,99.99
2016-10-29T05:55:01.999Z,99.99
2016-10-29T05:56:01.991Z,99.99
2016-10-29T05:57:01.983Z,99.99
2016-10-29T05:58:01.960Z,99.99
2016-10-29T05:59:01.955Z,99.99
2016-10-29T06:00:01.944Z,99.99
2016-10-29T06:01:01.932Z,99.99
2016-10-29T06:02:01.924Z,99.99
2016-10-29T06:03:01.910Z,99.99
2016-10-29T06:04:01.903Z,99.99
2016-10-29T06:05:01.885Z,99.99
2016-10-29T06:06:01.878Z,99.99
2016-10-29T06:07:01.868Z,99.99
2016-10-29T06:08:01.858Z,99.99
2016-10-29T06:09:01.845Z,99.99
2016-10-29T06:10:01.834Z,99.99
2016-10-29T06:11:01.824Z,99.99
2016-10-29T06:12:01.814Z,99.99
2016-10-29T06:13:01.802Z,99.99
2016-10-29T06:14:01.798Z,99.99
2016-10-29T06:15:01.783Z,99.99
2016-10-29T06:16:01.772Z,99.99
2016-10-29T06:17:01.761Z,99.99
2016-10-29T06:18:02.403Z,99.99
2016-10-29T06:19:01.744Z,99.99
2016-10-29T06:20:02.129Z,99.99
2016-10-29T06:21:01.872Z,99.99
2016-10-29T06:22:01.719Z,99.99
2016-10-29T06:23:01.747Z,99.99
2016-10-29T06:24:01.734Z,99.99
2016-10-29T06:25:01.675Z,99.99
2016-10-29T06:26:01.668Z,99.99
2016-10-29T06:28:01.649Z,99.99
2016-10-29T06:29:01.939Z,99.99
2016-10-29T06:30:01.623Z,99.99
2016-10-29T06:31:02.167Z,99.99
2016-10-29T06:32:01.605Z,99.99
2016-10-29T06:33:02.096Z,99.99
2016-10-29T06:34:01.585Z,99.99
2016-10-29T06:35:01.571Z,99.99
2016-10-29T06:36:01.563Z,99.99
2016-10-29T06:37:01.550Z,99.99
2016-10-29T06:38:01.539Z,99.99
2016-10-29T06:39:01.534Z,99.99
2016-10-29T06:40:01.519Z,99.99
2016-10-29T06:41:01.511Z,99.99
2016-10-29T06:42:01.498Z,99.99
2016-10-29T06:43:02.794Z,99.99
2016-10-29T06:44:01.738Z,99.99
2016-10-29T06:45:02.694Z,99.99
2016-10-29T06:46:01.463Z,99.99
2016-10-29T06:47:01.452Z,99.99
2016-10-29T06:48:01.505Z,99.99
2016-10-29T06:49:01.437Z,99.99
2016-10-29T06:50:01.424Z,99.99
2016-10-29T06:51:01.412Z,99.99
2016-10-29T06:52:01.403Z,99.99
2016-10-29T06:53:03.078Z,99.99
2016-10-29T06:54:01.389Z,99.99
2016-10-29T06:55:02.360Z,99.99
2016-10-29T06:56:02.201Z,99.99
2016-10-29T06:57:01.723Z,99.99
2016-10-29T06:58:01.355Z,99.99
2016-10-29T06:59:01.342Z,99.99
2016-10-29T07:00:01.335Z,99.99
2016-10-29T07:01:01.331Z,99.99
2016-10-29T07:02:01.322Z,99.99
2016-10-29T07:03:01.314Z,99.99
2016-10-29T07:04:01.305Z,99.99
2016-10-29T07:05:01.298Z,99.99
2016-10-29T07:06:01.284Z,99.99
2016-10-29T07:07:01.280Z,99.99
2016-10-29T07:08:01.266Z,99.99
2016-10-29T07:09:01.273Z,99.99
2016-10-29T07:10:01.249Z,99.99
2016-10-29T07:11:01.245Z,99.99
2016-10-29T07:12:01.232Z,99.99
2016-10-29T07:13:01.228Z,99.99
2016-10-29T07:14:01.218Z,99.99
2016-10-29T07:15:01.208Z,99.99
2016-10-29T07:16:01.205Z,99.99
2016-10-29T07:17:01.193Z,99.99
2016-10-29T07:18:01.188Z,99.99
2016-10-29T07:19:01.177Z,99.99
2016-10-29T07:20:01.171Z,99.99
2016-10-29T07:21:01.163Z,99.99
2016-10-29T07:22:01.153Z,99.99
2016-10-29T07:23:01.151Z,99.99
2016-10-29T07:24:01.134Z,99.99
2016-10-29T07:25:01.129Z,99.99
2016-10-29T07:26:01.122Z,99.99
2016-10-29T07:27:01.112Z,99.99
2016-10-29T07:28:01.104Z,99.99
2016-10-29T07:29:01.100Z,99.99
2016-10-29T07:30:01.091Z,99.99
2016-10-29T07:31:01.080Z,99.99
2016-10-29T07:32:01.107Z,99.99
2016-10-29T07:33:01.071Z,99.99
2016-10-29T07:34:01.062Z,99.99
2016-10-29T07:35:01.053Z,99.99
2016-10-29T07:36:01.045Z,99.99
2016-10-29T07:37:01.487Z,99.99
2016-10-29T07:38:01.377Z,99.99
2016-10-29T07:40:01.417Z,99.99
2016-10-29T07:41:01.006Z,99.99
2016-10-29T07:42:01.038Z,99.99
2016-10-29T07:43:00.996Z,99.99
2016-10-29T07:44:00.990Z,99.99
2016-10-29T07:45:00.977Z,99.99
2016-10-29T07:46:00.971Z,99.99
2016-10-29T07:47:01.016Z,99.99
2016-10-29T07:48:00.958Z,99.99
2016-10-29T07:49:01.747Z,99.99
2016-10-29T07:50:01.448Z,99.99
2016-10-29T07:51:00.936Z,99.99
2016-10-29T07:52:01.226Z,99.99
2016-10-29T07:53:00.920Z,99.99
2016-10-29T07:54:00.914Z,99.99
2016-10-29T07:55:00.903Z,99.99
2016-10-29T07:56:00.901Z,99.99
2016-10-29T07:57:00.889Z,99.99
2016-10-29T07:58:00.885Z,99.99
2016-10-29T07:59:00.876Z,99.99
2016-10-29T08:00:00.874Z,99.99
2016-10-29T08:01:01.171Z,99.99
2016-10-29T08:02:00.857Z,99.99
2016-10-29T08:03:02.184Z,99.99
2016-10-29T08:04:00.848Z,99.99
2016-10-29T08:05:01.107Z,99.99
2016-10-29T08:06:01.183Z,99.99
2016-10-29T08:07:00.825Z,99.99
2016-10-29T08:08:00.820Z,99.99
2016-10-29T08:09:00.811Z,99.99
2016-10-29T08:10:01.449Z,99.99
2016-10-29T08:11:01.900Z,99.99
2016-10-29T08:12:00.806Z,99.99
2016-10-29T08:13:00.784Z,99.99
2016-10-29T08:14:00.883Z,99.99
2016-10-29T08:15:01.454Z,99.99
2016-10-29T08:16:01.024Z,99.99
2016-10-29T08:17:00.758Z,99.99
2016-10-29T08:18:00.763Z,99.99
2016-10-29T08:19:00.747Z,99.99
2016-10-29T08:20:00.745Z,99.99
2016-10-29T08:21:00.736Z,99.99
2016-10-29T08:22:00.731Z,99.99
2016-10-29T08:23:00.726Z,99.99
2016-10-29T08:24:00.718Z,99.99
2016-10-29T08:25:00.722Z,99.99
2016-10-29T08:26:00.703Z,99.99
2016-10-29T08:27:00.700Z,99.99
2016-10-29T08:28:00.691Z,99.99
2016-10-29T08:29:00.692Z,99.99
2016-10-29T08:30:00.684Z,99.99
2016-10-29T08:31:00.675Z,99.99
2016-10-29T08:32:00.701Z,99.99
2016-10-29T08:33:00.666Z,99.99
2016-10-29T08:34:00.659Z,99.99
2016-10-29T08:35:00.694Z,99.99
2016-10-29T08:36:00.646Z,99.99
2016-10-29T08:37:00.638Z,99.99
2016-10-29T08:38:00.640Z,99.99
2016-10-29T08:39:00.634Z,99.99
2016-10-29T08:40:00.629Z,99.99
2016-10-29T08:41:00.651Z,99.99
2016-10-29T08:42:00.614Z,99.99
2016-10-29T08:43:00.608Z,99.99
2016-10-29T08:44:00.604Z,99.99
2016-10-29T08:45:00.596Z,99.99
2016-10-29T08:46:00.596Z,99.99
2016-10-29T08:47:00.586Z,99.99
2016-10-29T08:48:00.579Z,99.99
2016-10-29T08:49:00.584Z,99.99
2016-10-29T08:50:00.571Z,99.99
2016-10-29T08:51:00.570Z,99.99
2016-10-29T08:52:00.562Z,99.99
2016-10-29T08:53:00.558Z,99.99
2016-10-29T08:54:00.550Z,99.99
2016-10-29T08:55:00.843Z,99.99
2016-10-29T08:56:00.793Z,99.99
2016-10-29T08:57:00.536Z,99.99
2016-10-29T08:58:00.927Z,99.99
2016-10-29T08:59:01.116Z,99.99
2016-10-29T09:00:00.522Z,99.99
2016-10-29T09:01:00.517Z,99.99
2016-10-29T09:02:00.514Z,99.99
2016-10-29T09:03:00.504Z,99.99
2016-10-29T09:04:01.352Z,99.99
2016-10-29T09:05:00.542Z,99.99
2016-10-29T09:06:01.286Z,99.99
2016-10-29T09:07:00.483Z,99.99
2016-10-29T09:08:01.133Z,99.99
2016-10-29T09:09:00.477Z,99.99
2016-10-29T09:10:00.757Z,99.99
2016-10-29T09:11:00.465Z,99.99
2016-10-29T09:12:00.460Z,99.99
2016-10-29T09:13:00.453Z,99.99
2016-10-29T09:14:00.445Z,99.99
2016-10-29T09:15:00.446Z,99.99
2016-10-29T09:16:00.439Z,99.99
2016-10-29T09:17:00.437Z,99.99
2016-10-29T09:18:00.430Z,99.99
2016-10-29T09:19:01.437Z,99.99
2016-10-29T09:21:01.533Z,99.99
2016-10-29T09:22:01.016Z,99.99
2016-10-29T09:23:00.442Z,99.99
2016-10-29T09:24:00.682Z,99.99
2016-10-29T09:25:00.782Z,99.99
2016-10-29T09:26:00.389Z,99.99
2016-10-29T09:27:00.382Z,99.99
2016-10-29T09:28:00.612Z,99.99
2016-10-29T09:29:02.271Z,99.99
2016-10-29T09:30:00.368Z,99.99
2016-10-29T09:31:00.410Z,99.99
2016-10-29T09:32:00.360Z,99.99
2016-10-29T09:33:01.056Z,99.99
2016-10-29T09:34:00.354Z,99.99
2016-10-29T09:35:00.343Z,99.99
2016-10-29T09:36:00.341Z,99.99
2016-10-29T09:37:00.338Z,99.99
2016-10-29T09:38:00.329Z,99.99
2016-10-29T09:39:00.323Z,99.99
2016-10-29T09:40:00.321Z,99.99
2016-10-29T09:41:00.316Z,99.99
2016-10-29T09:42:00.311Z,99.99
2016-10-29T09:43:00.311Z,99.99
2016-10-29T09:44:00.311Z,99.99
2016-10-29T09:45:00.599Z,99.99
2016-10-29T09:46:00.299Z,99.99
2016-10-29T09:47:00.289Z,99.99
2016-10-29T09:48:00.287Z,99.99
2016-10-29T09:49:00.279Z,99.99
2016-10-29T09:50:00.279Z,99.99
2016-10-29T09:51:00.277Z,99.99
2016-10-29T09:52:00.270Z,99.99
2016-10-29T09:53:00.264Z,99.99
2016-10-29T09:54:00.258Z,99.99
2016-10-29T09:55:00.258Z,99.99
2016-10-29T09:56:00.254Z,99.99
2016-10-29T09:57:00.251Z,99.99
2016-10-29T09:58:00.242Z,99.99
2016-10-29T09:59:00.242Z,99.99
2016-10-29T10:00:00.234Z,99.99
2016-10-29T10:01:00.233Z,99.99
2016-10-29T10:02:00.224Z,99.99
2016-10-29T10:03:00.222Z,99.99
2016-10-29T10:04:00.220Z,99.99
2016-10-29T10:05:00.218Z,99.99
2016-10-29T10:06:00.213Z,99.99
2016-10-29T10:07:00.201Z,99.99
2016-10-29T10:08:00.202Z,99.99
2016-10-29T10:09:00.193Z,99.99
2016-10-29T10:10:00.187Z,99.99
2016-10-29T10:11:00.187Z,99.99
2016-10-29T10:12:00.183Z,99.99
2016-10-29T10:13:15.093Z,99.99
2016-10-29T10:14:00.527Z,99.99
2016-10-29T10:15:00.171Z,99.99
2016-10-29T10:16:00.169Z,99.99
2016-10-29T10:17:00.712Z,99.99
2016-10-29T10:18:00.162Z,99.99
2016-10-29T10:19:00.151Z,99.99
2016-10-29T10:20:00.149Z,99.99
2016-10-29T10:21:00.148Z,99.99
2016-10-29T10:22:00.339Z,99.99
2016-10-29T10:23:00.135Z,99.99
2016-10-29T10:24:00.185Z,99.99
2016-10-29T10:25:00.166Z,99.99
2016-10-29T10:26:00.129Z,99.99
2016-10-29T10:27:00.169Z,99.99
2016-10-29T10:28:00.419Z,99.99
2016-10-29T10:29:00.114Z,99.99
2016-10-29T10:30:00.109Z,99.99
2016-10-29T10:31:00.109Z,99.99
2016-10-29T10:32:00.101Z,99.99
2016-10-29T10:33:00.093Z,99.99
2016-10-29T10:34:00.094Z,99.99
2016-10-29T10:35:00.092Z,99.99
2016-10-29T10:36:00.089Z,99.99
2016-10-29T10:37:00.078Z,99.99
2016-10-29T10:38:01.028Z,99.99
2016-10-29T10:39:01.433Z,99.99
2016-10-29T10:40:00.071Z,99.99
2016-10-29T10:41:00.061Z,99.99
2016-10-29T10:42:00.878Z,99.99
2016-10-29T10:43:00.059Z,99.99
2016-10-29T10:44:00.047Z,99.99
2016-10-29T10:45:00.047Z,99.99
2016-10-29T10:46:00.042Z,99.99
2016-10-29T10:47:01.100Z,99.99
2016-10-29T10:48:00.117Z,99.99
2016-10-29T10:49:01.163Z,99.99
2016-10-29T10:50:00.021Z,99.99
2016-10-29T10:51:00.026Z,99.99
2016-10-29T10:52:00.018Z,99.81
2016-10-29T10:53:00.016Z,99.33
2016-10-29T10:54:00.008Z,99.85
2016-10-29T10:55:00.004Z,99.99
2016-10-29T10:55:59.998Z,99.99
2016-10-29T10:56:59.993Z,99.99
2016-10-29T10:58:00.027Z,99.99
2016-10-29T10:58:59.993Z,99.99
2016-10-29T10:59:59.986Z,99.99
2016-10-29T11:00:59.979Z,99.99
2016-10-29T11:01:59.982Z,99.99
2016-10-29T11:02:59.973Z,99.99
2016-10-29T11:03:59.967Z,99.99
2016-10-29T11:04:59.962Z,99.99
2016-10-29T11:05:59.965Z,99.99
2016-10-29T11:06:59.955Z,99.99
2016-10-29T11:07:59.945Z,99.99
2016-10-29T11:08:59.943Z,99.99
2016-10-29T11:09:59.937Z,99.99
2016-10-29T11:10:59.938Z,99.99
2016-10-29T11:11:59.927Z,99.99
2016-10-29T11:12:59.927Z,99.99
2016-10-29T11:13:59.925Z,99.99
2016-10-29T11:14:59.918Z,99.99
2016-10-29T11:15:59.912Z,99.99
2016-10-29T11:16:59.909Z,99.99
2016-10-29T11:17:59.912Z,99.99
2016-10-29T11:18:59.904Z,99.99
2016-10-29T11:19:59.893Z,99.99
2016-10-29T11:20:59.890Z,99.99
2016-10-29T11:21:59.890Z,99.99
2016-10-29T11:22:59.885Z,99.99
2016-10-29T11:23:59.878Z,99.99
2016-10-29T11:25:00.177Z,98.18
2016-10-29T11:25:59.905Z,99.62
2016-10-29T11:26:59.868Z,98.75
2016-10-29T11:27:59.864Z,99.9
2016-10-29T11:28:59.862Z,99.99
2016-10-29T11:29:59.854Z,97.99
2016-10-29T11:30:59.852Z,97.52
2016-10-29T11:31:59.894Z,98.09
2016-10-29T11:33:00.190Z,98.52
2016-10-29T11:34:00.681Z,97.37
2016-10-29T11:34:59.831Z,95.56
2016-10-29T11:36:00.177Z,95.46
2016-10-29T11:36:59.822Z,97.28
2016-10-29T11:37:59.815Z,97.85
2016-10-29T11:38:59.850Z,98.61
2016-10-29T11:39:59.807Z,98.61
2016-10-29T11:41:00.906Z,99.66
2016-10-29T11:42:00.246Z,99.19
2016-10-29T11:42:59.790Z,98.23
2016-10-29T11:43:59.792Z,98.13
2016-10-29T11:44:59.793Z,97.75
2016-10-29T11:45:59.785Z,98.04
2016-10-29T11:47:00.138Z,97.75
2016-10-29T11:47:59.767Z,98.52
2016-10-29T11:48:59.764Z,98.13
2016-10-29T11:49:59.765Z,98.9
2016-10-29T11:50:59.754Z,98.23
2016-10-29T11:51:59.768Z,98.23
2016-10-29T11:52:59.749Z,98.99
2016-10-29T11:53:59.749Z,98.71
2016-10-29T11:54:59.738Z,98.8
2016-10-29T11:56:01.250Z,98.71
2016-10-29T11:57:00.864Z,98.71
2016-10-29T11:58:00.196Z,98.52
2016-10-29T11:59:00.321Z,97.56
2016-10-29T12:00:00.322Z,98.23
2016-10-29T12:00:59.925Z,98.33
2016-10-29T12:01:59.710Z,99.76
2016-10-29T12:02:59.706Z,98.9
2016-10-29T12:03:59.699Z,98.71
2016-10-29T12:04:59.695Z,99.19
2016-10-29T12:05:59.701Z,98.71
2016-10-29T12:07:01.200Z,98.52
2016-10-29T12:07:59.777Z,99.38
2016-10-29T12:09:00.338Z,99.85
2016-10-29T12:10:00.357Z,99.99
2016-10-29T12:10:59.664Z,99.99
2016-10-29T12:11:59.661Z,99.99
2016-10-29T12:12:59.659Z,99.99
2016-10-29T12:13:59.652Z,99.99
2016-10-29T12:14:59.651Z,99.99
2016-10-29T12:15:59.642Z,99.99
2016-10-29T12:16:59.639Z,99.38
2016-10-29T12:17:59.633Z,99.23
2016-10-29T12:19:00.383Z,99.23
2016-10-29T12:19:59.628Z,99.52
2016-10-29T12:20:59.620Z,99.04
2016-10-29T12:21:59.616Z,98.9
2016-10-29T12:22:59.609Z,99.37
2016-10-29T12:23:59.607Z,99.66
2016-10-29T12:24:59.606Z,99.66
2016-10-29T12:25:59.591Z,99.99
2016-10-29T12:26:59.593Z,99.99
2016-10-29T12:27:59.889Z,99.99
2016-10-29T12:28:59.576Z,99.99
2016-10-29T12:29:59.577Z,99.57
2016-10-29T12:30:59.569Z,99.47
2016-10-29T12:31:59.569Z,99.23
2016-10-29T12:32:59.558Z,99.95
2016-10-29T12:33:59.555Z,99.99
2016-10-29T12:34:59.550Z,99.99
2016-10-29T12:35:59.544Z,99.99
2016-10-29T12:36:59.539Z,99.99
2016-10-29T12:37:59.538Z,99.99
2016-10-29T12:38:59.530Z,99.99
2016-10-29T12:39:59.530Z,99.99
2016-10-29T12:40:59.520Z,99.99
2016-10-29T12:41:59.517Z,99.99
2016-10-29T12:42:59.514Z,99.99
2016-10-29T12:43:59.507Z,99.99
2016-10-29T12:44:59.497Z,99.99
2016-10-29T12:45:59.494Z,99.99
2016-10-29T12:46:59.488Z,99.99
2016-10-29T12:47:59.483Z,99.99
2016-10-29T12:48:59.483Z,99.99
2016-10-29T12:49:59.626Z,99.99
2016-10-29T12:51:14.382Z,99.99
2016-10-29T12:52:59.463Z,99.99
2016-10-29T12:53:59.459Z,99.99
2016-10-29T12:54:59.453Z,99.99
2016-10-29T12:55:59.450Z,99.99
2016-10-29T12:56:59.443Z,99.99
2016-10-29T12:57:59.432Z,99.99
2016-10-29T12:59:59.426Z,98.47
2016-10-29T13:01:14.431Z,98.85
2016-10-29T13:01:59.418Z,99.33
2016-10-29T13:02:59.569Z,99.71